sensor_id;sensor_type;location;lat;lon;timestamp;pressure;altitude;pressure_sealevel;temperature;humidity
23473;BME280;11909;52.516;13.564;2023-04-27T00:02:18;101212.53;;;6.99;65.43
23473;BME280;11909;52.516;13.564;2023-04-27T00:04:46;101215.84;;;7.01;65.48
23473;BME280;11909;52.516;13.564;2023-04-27T00:07:15;101213.09;;;7.01;65.47
23473;BME280;11909;52.516;13.564;2023-04-27T00:09:42;101210.63;;;7.00;65.61
23473;BME280;11909;52.516;13.564;2023-04-27T00:12:10;101217.25;;;7.04;65.02
23473;BME280;11909;52.516;13.564;2023-04-27T00:14:39;101210.63;;;7.00;65.11
23473;BME280;11909;52.516;13.564;2023-04-27T00:17:08;101200.69;;;6.94;65.20
23473;BME280;11909;52.516;13.564;2023-04-27T00:19:36;101207.78;;;6.95;65.66
23473;BME280;11909;52.516;13.564;2023-04-27T00:22:05;101210.78;;;6.93;65.58
23473;BME280;11909;52.516;13.564;2023-04-27T00:24:32;101209.13;;;6.92;65.02
23473;BME280;11909;52.516;13.564;2023-04-27T00:27:00;101203.91;;;6.91;65.43
23473;BME280;11909;52.516;13.564;2023-04-27T00:29:28;101203.06;;;6.90;65.39
23473;BME280;11909;52.516;13.564;2023-04-27T00:31:56;101206.06;;;6.88;66.09
23473;BME280;11909;52.516;13.564;2023-04-27T00:34:26;101204.97;;;6.89;65.04
23473;BME280;11909;52.516;13.564;2023-04-27T00:36:54;101210.78;;;6.93;64.68
23473;BME280;11909;52.516;13.564;2023-04-27T00:39:24;101215.06;;;6.89;64.94
23473;BME280;11909;52.516;13.564;2023-04-27T00:41:51;101211.25;;;6.90;65.50
23473;BME280;11909;52.516;13.564;2023-04-27T00:44:22;101215.41;;;6.93;64.93
23473;BME280;11909;52.516;13.564;2023-04-27T00:46:51;101221.34;;;6.89;65.10
23473;BME280;11909;52.516;13.564;2023-04-27T00:49:20;101222.16;;;6.90;65.16
23473;BME280;11909;52.516;13.564;2023-04-27T00:51:50;101223.81;;;6.91;65.66
23473;BME280;11909;52.516;13.564;2023-04-27T00:54:19;101216.69;;;6.90;65.89
23473;BME280;11909;52.516;13.564;2023-04-27T00:56:47;101225.97;;;6.89;65.94
23473;BME280;11909;52.516;13.564;2023-04-27T00:59:16;101215.63;;;6.91;65.60
23473;BME280;11909;52.516;13.564;2023-04-27T01:01:45;101223.59;;;6.93;65.24
23473;BME280;11909;52.516;13.564;2023-04-27T01:04:13;101219.94;;;6.87;65.57
23473;BME280;11909;52.516;13.564;2023-04-27T01:06:42;101223.16;;;6.84;64.99
23473;BME280;11909;52.516;13.564;2023-04-27T01:09:12;101229.75;;;6.88;64.97
23473;BME280;11909;52.516;13.564;2023-04-27T01:11:41;101230.13;;;6.92;64.73
23473;BME280;11909;52.516;13.564;2023-04-27T01:14:10;101233.44;;;6.94;64.82
23473;BME280;11909;52.516;13.564;2023-04-27T01:16:38;101221.94;;;6.92;64.56
23473;BME280;11909;52.516;13.564;2023-04-27T01:19:07;101223.81;;;6.91;64.76
23473;BME280;11909;52.516;13.564;2023-04-27T01:21:35;101225.16;;;6.88;64.60
23473;BME280;11909;52.516;13.564;2023-04-27T01:24:06;101226.91;;;6.95;64.83
23473;BME280;11909;52.516;13.564;2023-04-27T01:26:36;101227.75;;;6.95;64.26
23473;BME280;11909;52.516;13.564;2023-04-27T01:29:04;101242.69;;;6.93;63.84
23473;BME280;11909;52.516;13.564;2023-04-27T01:31:32;101242.09;;;6.91;64.09
23473;BME280;11909;52.516;13.564;2023-04-27T01:34:00;101239.50;;;6.84;64.11
23473;BME280;11909;52.516;13.564;2023-04-27T01:36:29;101238.94;;;6.82;64.05
23473;BME280;11909;52.516;13.564;2023-04-27T01:38:58;101240.59;;;6.83;64.47
23473;BME280;11909;52.516;13.564;2023-04-27T01:41:27;101243.31;;;6.83;63.93
23473;BME280;11909;52.516;13.564;2023-04-27T01:43:55;101248.28;;;6.86;63.26
23473;BME280;11909;52.516;13.564;2023-04-27T01:46:23;101250.19;;;6.85;63.42
23473;BME280;11909;52.516;13.564;2023-04-27T01:48:52;101248.78;;;6.83;63.36
23473;BME280;11909;52.516;13.564;2023-04-27T01:51:19;101252.56;;;6.82;63.75
23473;BME280;11909;52.516;13.564;2023-04-27T01:53:47;101255.97;;;6.89;62.81
23473;BME280;11909;52.516;13.564;2023-04-27T01:56:15;101258.47;;;6.91;62.88
23473;BME280;11909;52.516;13.564;2023-04-27T01:58:44;101260.28;;;6.85;62.85
23473;BME280;11909;52.516;13.564;2023-04-27T02:01:12;101251.75;;;6.81;63.20
23473;BME280;11909;52.516;13.564;2023-04-27T02:03:41;101263.13;;;6.78;63.27
23473;BME280;11909;52.516;13.564;2023-04-27T02:06:09;101263.63;;;6.75;63.28
23473;BME280;11909;52.516;13.564;2023-04-27T02:08:37;101260.56;;;6.71;63.84
23473;BME280;11909;52.516;13.564;2023-04-27T02:11:05;101270.16;;;6.74;63.93
23473;BME280;11909;52.516;13.564;2023-04-27T02:13:33;101263.88;;;6.73;63.73
23473;BME280;11909;52.516;13.564;2023-04-27T02:16:02;101261.88;;;6.69;64.25
23473;BME280;11909;52.516;13.564;2023-04-27T02:18:31;101267.31;;;6.69;64.79
23473;BME280;11909;52.516;13.564;2023-04-27T02:21:00;101263.16;;;6.66;64.87
23473;BME280;11909;52.516;13.564;2023-04-27T02:23:27;101269.38;;;6.62;65.17
23473;BME280;11909;52.516;13.564;2023-04-27T02:25:55;101266.75;;;6.67;65.24
23473;BME280;11909;52.516;13.564;2023-04-27T02:28:24;101268.25;;;6.74;64.75
23473;BME280;11909;52.516;13.564;2023-04-27T02:30:52;101276.94;;;6.71;64.31
23473;BME280;11909;52.516;13.564;2023-04-27T02:33:21;101276.38;;;6.57;64.76
23473;BME280;11909;52.516;13.564;2023-04-27T02:35:49;101281.13;;;6.50;65.50
23473;BME280;11909;52.516;13.564;2023-04-27T02:38:17;101273.91;;;6.44;66.05
23473;BME280;11909;52.516;13.564;2023-04-27T02:40:52;101272.25;;;6.43;66.42
23473;BME280;11909;52.516;13.564;2023-04-27T02:43:20;101282.19;;;6.49;66.75
23473;BME280;11909;52.516;13.564;2023-04-27T02:45:48;101277.31;;;6.51;66.95
23473;BME280;11909;52.516;13.564;2023-04-27T02:48:16;101277.09;;;6.53;67.13
23473;BME280;11909;52.516;13.564;2023-04-27T02:50:45;101282.53;;;6.53;67.13
23473;BME280;11909;52.516;13.564;2023-04-27T02:53:13;101271.38;;;6.54;67.07
23473;BME280;11909;52.516;13.564;2023-04-27T02:55:44;101267.84;;;6.54;67.38
23473;BME280;11909;52.516;13.564;2023-04-27T02:58:13;101275.34;;;6.47;67.62
23473;BME280;11909;52.516;13.564;2023-04-27T03:00:42;101275.91;;;6.49;67.82
23473;BME280;11909;52.516;13.564;2023-04-27T03:03:10;101292.59;;;6.52;67.63
23473;BME280;11909;52.516;13.564;2023-04-27T03:05:39;101287.41;;;6.51;67.21
23473;BME280;11909;52.516;13.564;2023-04-27T03:08:08;101279.09;;;6.45;67.09
23473;BME280;11909;52.516;13.564;2023-04-27T03:10:36;101285.63;;;6.44;67.76
23473;BME280;11909;52.516;13.564;2023-04-27T03:13:04;101287.53;;;6.44;67.45
23473;BME280;11909;52.516;13.564;2023-04-27T03:15:32;101289.19;;;6.45;67.15
23473;BME280;11909;52.516;13.564;2023-04-27T03:18:00;101288.81;;;6.41;67.06
23473;BME280;11909;52.516;13.564;2023-04-27T03:20:27;101292.28;;;6.37;67.26
23473;BME280;11909;52.516;13.564;2023-04-27T03:22:56;101282.69;;;6.34;67.43
23473;BME280;11909;52.516;13.564;2023-04-27T03:25:25;101291.56;;;6.29;67.41
23473;BME280;11909;52.516;13.564;2023-04-27T03:27:53;101290.00;;;6.34;67.06
23473;BME280;11909;52.516;13.564;2023-04-27T03:30:22;101293.81;;;6.32;67.42
23473;BME280;11909;52.516;13.564;2023-04-27T03:32:49;101297.88;;;6.30;67.25
23473;BME280;11909;52.516;13.564;2023-04-27T03:35:18;101303.41;;;6.35;67.17
23473;BME280;11909;52.516;13.564;2023-04-27T03:37:45;101307.22;;;6.34;66.64
23473;BME280;11909;52.516;13.564;2023-04-27T03:40:13;101303.06;;;6.31;66.48
23473;BME280;11909;52.516;13.564;2023-04-27T03:42:43;101303.31;;;6.30;66.74
23473;BME280;11909;52.516;13.564;2023-04-27T03:45:11;101311.97;;;6.27;66.87
23473;BME280;11909;52.516;13.564;2023-04-27T03:47:39;101308.75;;;6.30;67.57
23473;BME280;11909;52.516;13.564;2023-04-27T03:50:08;101307.81;;;6.24;67.35
23473;BME280;11909;52.516;13.564;2023-04-27T03:52:36;101309.09;;;6.22;67.66
23473;BME280;11909;52.516;13.564;2023-04-27T03:55:05;101313.25;;;6.24;67.01
23473;BME280;11909;52.516;13.564;2023-04-27T03:57:33;101314.91;;;6.25;67.10
23473;BME280;11909;52.516;13.564;2023-04-27T04:00:03;101318.94;;;6.23;67.69
23473;BME280;11909;52.516;13.564;2023-04-27T04:02:37;101322.13;;;6.20;67.50
23473;BME280;11909;52.516;13.564;2023-04-27T04:05:05;101320.75;;;6.17;67.25
23473;BME280;11909;52.516;13.564;2023-04-27T04:07:34;101326.41;;;6.15;67.96
23473;BME280;11909;52.516;13.564;2023-04-27T04:10:02;101325.81;;;6.13;67.77
23473;BME280;11909;52.516;13.564;2023-04-27T04:12:30;101329.63;;;6.12;68.09
23473;BME280;11909;52.516;13.564;2023-04-27T04:14:58;101335.53;;;6.21;67.82
23473;BME280;11909;52.516;13.564;2023-04-27T04:17:27;101328.81;;;6.24;68.21
23473;BME280;11909;52.516;13.564;2023-04-27T04:19:55;101336.25;;;6.28;67.50
23473;BME280;11909;52.516;13.564;2023-04-27T04:22:23;101337.09;;;6.29;67.13
23473;BME280;11909;52.516;13.564;2023-04-27T04:24:51;101349.75;;;6.23;66.59
23473;BME280;11909;52.516;13.564;2023-04-27T04:27:19;101345.59;;;6.21;66.48
23473;BME280;11909;52.516;13.564;2023-04-27T04:29:47;101349.75;;;6.11;67.21
23473;BME280;11909;52.516;13.564;2023-04-27T04:32:15;101348.31;;;6.09;67.64
23473;BME280;11909;52.516;13.564;2023-04-27T04:34:48;101353.56;;;6.10;66.71
23473;BME280;11909;52.516;13.564;2023-04-27T04:37:17;101349.63;;;6.06;66.73
23473;BME280;11909;52.516;13.564;2023-04-27T04:39:45;101355.31;;;6.05;67.55
23473;BME280;11909;52.516;13.564;2023-04-27T04:42:13;101344.31;;;6.11;67.64
23473;BME280;11909;52.516;13.564;2023-04-27T04:44:42;101350.81;;;6.10;67.41
23473;BME280;11909;52.516;13.564;2023-04-27T04:47:10;101353.31;;;6.12;68.15
23473;BME280;11909;52.516;13.564;2023-04-27T04:49:38;101352.00;;;6.14;68.37
23473;BME280;11909;52.516;13.564;2023-04-27T04:52:08;101354.84;;;6.20;67.90
23473;BME280;11909;52.516;13.564;2023-04-27T04:54:35;101357.72;;;6.25;67.65
23473;BME280;11909;52.516;13.564;2023-04-27T04:57:04;101353.44;;;6.29;67.19
23473;BME280;11909;52.516;13.564;2023-04-27T04:59:33;101361.63;;;6.29;66.96
23473;BME280;11909;52.516;13.564;2023-04-27T05:02:01;101361.63;;;6.29;67.49
23473;BME280;11909;52.516;13.564;2023-04-27T05:04:29;101368.25;;;6.33;67.36
23473;BME280;11909;52.516;13.564;2023-04-27T05:06:58;101369.69;;;6.36;67.57
23473;BME280;11909;52.516;13.564;2023-04-27T05:09:28;101367.56;;;6.38;67.73
23473;BME280;11909;52.516;13.564;2023-04-27T05:11:56;101376.66;;;6.43;67.30
23473;BME280;11909;52.516;13.564;2023-04-27T05:14:24;101369.69;;;6.48;67.41
23473;BME280;11909;52.516;13.564;2023-04-27T05:16:52;101374.78;;;6.44;66.49
23473;BME280;11909;52.516;13.564;2023-04-27T05:19:20;101373.94;;;6.43;66.98
23473;BME280;11909;52.516;13.564;2023-04-27T05:21:48;101367.19;;;6.46;66.60
23473;BME280;11909;52.516;13.564;2023-04-27T05:24:16;101366.34;;;6.45;66.93
23473;BME280;11909;52.516;13.564;2023-04-27T05:26:45;101372.16;;;6.49;67.58
23473;BME280;11909;52.516;13.564;2023-04-27T05:29:13;101375.75;;;6.50;66.83
23473;BME280;11909;52.516;13.564;2023-04-27T05:31:42;101376.91;;;6.54;66.48
23473;BME280;11909;52.516;13.564;2023-04-27T05:34:10;101368.97;;;6.52;66.47
23473;BME280;11909;52.516;13.564;2023-04-27T05:36:38;101367.31;;;6.51;66.84
23473;BME280;11909;52.516;13.564;2023-04-27T05:39:06;101372.06;;;6.56;66.93
23473;BME280;11909;52.516;13.564;2023-04-27T05:41:35;101366.22;;;6.52;67.27
23473;BME280;11909;52.516;13.564;2023-04-27T05:44:05;101379.06;;;6.64;67.43
23473;BME280;11909;52.516;13.564;2023-04-27T05:46:33;101373.59;;;6.64;67.01
23473;BME280;11909;52.516;13.564;2023-04-27T05:49:04;101375.72;;;6.62;67.30
23473;BME280;11909;52.516;13.564;2023-04-27T05:51:32;101371.69;;;6.64;67.63
23473;BME280;11909;52.516;13.564;2023-04-27T05:54:00;101374.19;;;6.66;67.17
23473;BME280;11909;52.516;13.564;2023-04-27T05:56:28;101378.94;;;6.70;67.27
23473;BME280;11909;52.516;13.564;2023-04-27T05:58:55;101383.66;;;6.75;66.41
23473;BME280;11909;52.516;13.564;2023-04-27T06:01:29;101380.91;;;6.75;66.48
23473;BME280;11909;52.516;13.564;2023-04-27T06:03:57;101387.22;;;6.76;66.59
23473;BME280;11909;52.516;13.564;2023-04-27T06:06:29;101383.41;;;6.77;66.93
23473;BME280;11909;52.516;13.564;2023-04-27T06:08:57;101394.44;;;6.82;65.57
23473;BME280;11909;52.516;13.564;2023-04-27T06:11:25;101391.13;;;6.92;65.63
23473;BME280;11909;52.516;13.564;2023-04-27T06:13:53;101397.75;;;6.84;66.08
23473;BME280;11909;52.516;13.564;2023-04-27T06:16:22;101394.22;;;6.83;66.02
23473;BME280;11909;52.516;13.564;2023-04-27T06:18:51;101401.91;;;6.86;66.35
23473;BME280;11909;52.516;13.564;2023-04-27T06:21:20;101395.97;;;6.89;66.65
23473;BME280;11909;52.516;13.564;2023-04-27T06:23:47;101397.88;;;6.89;65.95
23473;BME280;11909;52.516;13.564;2023-04-27T06:26:15;101388.75;;;6.95;66.61
23473;BME280;11909;52.516;13.564;2023-04-27T06:28:43;101394.44;;;6.94;66.59
23473;BME280;11909;52.516;13.564;2023-04-27T06:31:12;101405.25;;;6.88;65.78
23473;BME280;11909;52.516;13.564;2023-04-27T06:33:40;101404.03;;;6.96;66.27
23473;BME280;11909;52.516;13.564;2023-04-27T06:36:09;101400.13;;;7.04;66.07
23473;BME280;11909;52.516;13.564;2023-04-27T06:38:37;101415.03;;;7.13;64.44
23473;BME280;11909;52.516;13.564;2023-04-27T06:41:05;101407.78;;;7.19;63.27
23473;BME280;11909;52.516;13.564;2023-04-27T06:43:34;101417.50;;;7.15;63.08
23473;BME280;11909;52.516;13.564;2023-04-27T06:46:02;101408.63;;;7.08;63.34
23473;BME280;11909;52.516;13.564;2023-04-27T06:48:29;101421.09;;;7.15;61.76
23473;BME280;11909;52.516;13.564;2023-04-27T06:50:58;101423.72;;;7.10;60.83
23473;BME280;11909;52.516;13.564;2023-04-27T06:53:27;101428.34;;;6.98;61.38
23473;BME280;11909;52.516;13.564;2023-04-27T06:55:55;101424.81;;;6.97;61.23
23473;BME280;11909;52.516;13.564;2023-04-27T06:58:23;101433.31;;;7.01;60.56
23473;BME280;11909;52.516;13.564;2023-04-27T07:00:50;101428.44;;;7.03;60.72
23473;BME280;11909;52.516;13.564;2023-04-27T07:03:19;101429.53;;;7.02;60.60
23473;BME280;11909;52.516;13.564;2023-04-27T07:05:48;101432.38;;;7.07;60.76
23473;BME280;11909;52.516;13.564;2023-04-27T07:08:16;101428.44;;;7.15;62.27
23473;BME280;11909;52.516;13.564;2023-04-27T07:10:46;101423.19;;;7.25;62.92
23473;BME280;11909;52.516;13.564;2023-04-27T07:13:14;101437.19;;;7.41;60.25
23473;BME280;11909;52.516;13.564;2023-04-27T07:15:42;101440.09;;;7.51;57.57
23473;BME280;11909;52.516;13.564;2023-04-27T07:18:09;101438.66;;;7.49;58.73
23473;BME280;11909;52.516;13.564;2023-04-27T07:20:37;101448.19;;;7.46;57.66
23473;BME280;11909;52.516;13.564;2023-04-27T07:23:05;101452.09;;;7.50;58.32
23473;BME280;11909;52.516;13.564;2023-04-27T07:25:33;101442.59;;;7.53;58.80
23473;BME280;11909;52.516;13.564;2023-04-27T07:28:03;101442.34;;;7.54;58.48
23473;BME280;11909;52.516;13.564;2023-04-27T07:30:31;101441.56;;;7.71;56.99
23473;BME280;11909;52.516;13.564;2023-04-27T07:33:02;101451.97;;;7.57;56.33
23473;BME280;11909;52.516;13.564;2023-04-27T07:35:30;101437.84;;;7.48;57.76
23473;BME280;11909;52.516;13.564;2023-04-27T07:37:58;101444.25;;;7.54;56.10
23473;BME280;11909;52.516;13.564;2023-04-27T07:40:27;101442.84;;;7.51;57.04
23473;BME280;11909;52.516;13.564;2023-04-27T07:42:55;101442.47;;;7.47;58.01
23473;BME280;11909;52.516;13.564;2023-04-27T07:45:26;101446.06;;;7.48;58.63
23473;BME280;11909;52.516;13.564;2023-04-27T07:47:58;101444.84;;;7.56;59.57
23473;BME280;11909;52.516;13.564;2023-04-27T07:50:28;101458.28;;;7.86;56.49
23473;BME280;11909;52.516;13.564;2023-04-27T07:52:56;101458.28;;;7.86;55.83
23473;BME280;11909;52.516;13.564;2023-04-27T07:55:24;101457.94;;;8.00;56.64
23473;BME280;11909;52.516;13.564;2023-04-27T07:57:53;101465.94;;;8.01;55.64
23473;BME280;11909;52.516;13.564;2023-04-27T08:00:22;101461.03;;;8.03;55.21
23473;BME280;11909;52.516;13.564;2023-04-27T08:02:53;101459.69;;;8.06;55.79
23473;BME280;11909;52.516;13.564;2023-04-27T08:05:23;101456.31;;;8.16;56.59
23473;BME280;11909;52.516;13.564;2023-04-27T08:07:51;101457.41;;;8.15;56.19
23473;BME280;11909;52.516;13.564;2023-04-27T08:10:20;101451.69;;;8.16;55.71
23473;BME280;11909;52.516;13.564;2023-04-27T08:12:48;101451.84;;;8.10;56.12
23473;BME280;11909;52.516;13.564;2023-04-27T08:15:16;101465.94;;;8.18;55.04
23473;BME280;11909;52.516;13.564;2023-04-27T08:17:44;101461.78;;;8.16;53.97
23473;BME280;11909;52.516;13.564;2023-04-27T08:20:14;101464.63;;;8.21;52.73
23473;BME280;11909;52.516;13.564;2023-04-27T08:22:42;101458.38;;;8.09;53.98
23473;BME280;11909;52.516;13.564;2023-04-27T08:25:10;101462.59;;;7.99;54.07
23473;BME280;11909;52.516;13.564;2023-04-27T08:27:38;101465.06;;;8.01;55.32
23473;BME280;11909;52.516;13.564;2023-04-27T08:30:08;101476.88;;;8.18;53.50
23473;BME280;11909;52.516;13.564;2023-04-27T08:32:35;101467.75;;;8.13;54.97
23473;BME280;11909;52.516;13.564;2023-04-27T08:35:04;101473.22;;;8.30;55.51
23473;BME280;11909;52.516;13.564;2023-04-27T08:37:34;101471.19;;;8.37;55.64
23473;BME280;11909;52.516;13.564;2023-04-27T08:40:04;101464.63;;;8.38;55.44
23473;BME280;11909;52.516;13.564;2023-04-27T08:42:34;101475.44;;;8.45;53.12
23473;BME280;11909;52.516;13.564;2023-04-27T08:45:02;101475.59;;;8.38;53.38
23473;BME280;11909;52.516;13.564;2023-04-27T08:47:33;101478.69;;;8.30;52.00
23473;BME280;11909;52.516;13.564;2023-04-27T08:50:10;101466.44;;;8.32;55.32
23473;BME280;11909;52.516;13.564;2023-04-27T08:52:42;101479.31;;;8.32;53.21
23473;BME280;11909;52.516;13.564;2023-04-27T08:55:10;101484.78;;;8.32;51.91
23473;BME280;11909;52.516;13.564;2023-04-27T08:57:52;101477.63;;;8.14;51.92
23473;BME280;11909;52.516;13.564;2023-04-27T09:00:21;101479.03;;;8.16;52.40
23473;BME280;11909;52.516;13.564;2023-04-27T09:02:49;101480.34;;;8.14;52.11
23473;BME280;11909;52.516;13.564;2023-04-27T09:05:17;101476.53;;;8.15;53.39
23473;BME280;11909;52.516;13.564;2023-04-27T09:07:58;101473.56;;;8.16;52.80
23473;BME280;11909;52.516;13.564;2023-04-27T09:10:26;101481.41;;;8.13;52.47
23473;BME280;11909;52.516;13.564;2023-04-27T09:12:57;101486.97;;;8.18;52.01
23473;BME280;11909;52.516;13.564;2023-04-27T09:15:25;101481.63;;;8.23;52.10
23473;BME280;11909;52.516;13.564;2023-04-27T09:17:54;101476.66;;;8.20;52.93
23473;BME280;11909;52.516;13.564;2023-04-27T09:20:23;101467.69;;;8.25;53.58
23473;BME280;11909;52.516;13.564;2023-04-27T09:22:53;101474.81;;;8.26;52.77
23473;BME280;11909;52.516;13.564;2023-04-27T09:25:24;101468.59;;;8.30;53.52
23473;BME280;11909;52.516;13.564;2023-04-27T09:27:53;101471.91;;;8.32;53.00
23473;BME280;11909;52.516;13.564;2023-04-27T09:30:21;101465.94;;;8.36;52.98
23473;BME280;11909;52.516;13.564;2023-04-27T09:32:51;101470.91;;;8.39;53.48
23473;BME280;11909;52.516;13.564;2023-04-27T09:35:21;101461.00;;;8.50;53.32
23473;BME280;11909;52.516;13.564;2023-04-27T09:37:50;101464.44;;;8.57;53.69
23473;BME280;11909;52.516;13.564;2023-04-27T09:40:20;101451.56;;;8.57;54.24
23473;BME280;11909;52.516;13.564;2023-04-27T09:42:55;101470.91;;;8.68;52.72
23473;BME280;11909;52.516;13.564;2023-04-27T09:45:23;101462.94;;;8.66;52.69
23473;BME280;11909;52.516;13.564;2023-04-27T09:47:52;101466.81;;;8.70;52.00
23473;BME280;11909;52.516;13.564;2023-04-27T09:50:20;101465.00;;;8.59;53.25
23473;BME280;11909;52.516;13.564;2023-04-27T09:52:48;101466.59;;;8.55;51.49
23473;BME280;11909;52.516;13.564;2023-04-27T09:55:20;101463.66;;;8.61;51.80
23473;BME280;11909;52.516;13.564;2023-04-27T09:57:57;101468.13;;;8.51;52.24
23473;BME280;11909;52.516;13.564;2023-04-27T10:00:44;101465.06;;;8.47;52.85
23473;BME280;11909;52.516;13.564;2023-04-27T10:03:21;101461.56;;;8.35;51.61
23473;BME280;11909;52.516;13.564;2023-04-27T10:08:55;101457.66;;;8.47;51.40
23473;BME280;11909;52.516;13.564;2023-04-27T10:11:36;101454.19;;;8.86;50.90
23473;BME280;11909;52.516;13.564;2023-04-27T10:14:07;101454.28;;;8.92;50.00
23473;BME280;11909;52.516;13.564;2023-04-27T10:16:43;101445.97;;;8.86;50.37
23473;BME280;11909;52.516;13.564;2023-04-27T10:19:12;101449.41;;;8.77;50.96
23473;BME280;11909;52.516;13.564;2023-04-27T10:21:54;101441.34;;;8.87;50.60
23473;BME280;11909;52.516;13.564;2023-04-27T10:24:36;101447.38;;;8.89;51.34
23473;BME280;11909;52.516;13.564;2023-04-27T10:27:05;101439.56;;;8.98;52.65
23473;BME280;11909;52.516;13.564;2023-04-27T10:29:40;101424.81;;;9.21;54.17
23473;BME280;11909;52.516;13.564;2023-04-27T10:32:11;101435.16;;;9.36;52.16
23473;BME280;11909;52.516;13.564;2023-04-27T10:34:39;101437.03;;;9.58;51.28
23473;BME280;11909;52.516;13.564;2023-04-27T10:37:10;101441.63;;;9.80;49.89
23473;BME280;11909;52.516;13.564;2023-04-27T10:39:39;101435.75;;;9.93;48.87
23473;BME280;11909;52.516;13.564;2023-04-27T10:42:25;101450.63;;;10.02;45.22
23473;BME280;11909;52.516;13.564;2023-04-27T10:44:57;101452.00;;;10.00;44.21
23473;BME280;11909;52.516;13.564;2023-04-27T10:47:35;101454.84;;;10.10;44.19
23473;BME280;11909;52.516;13.564;2023-04-27T10:50:06;101441.06;;;10.05;44.06
23473;BME280;11909;52.516;13.564;2023-04-27T10:52:34;101431.16;;;10.31;47.00
23473;BME280;11909;52.516;13.564;2023-04-27T10:55:16;101459.22;;;10.71;40.36
23473;BME280;11909;52.516;13.564;2023-04-27T10:57:45;101456.16;;;10.68;40.77
23473;BME280;11909;52.516;13.564;2023-04-27T11:00:21;101448.38;;;10.54;41.00
23473;BME280;11909;52.516;13.564;2023-04-27T11:02:50;101450.50;;;10.47;40.84
23473;BME280;11909;52.516;13.564;2023-04-27T11:05:19;101454.88;;;10.43;42.63
23473;BME280;11909;52.516;13.564;2023-04-27T11:07:47;101457.13;;;10.18;40.45
23473;BME280;11909;52.516;13.564;2023-04-27T11:10:17;101452.53;;;9.97;42.99
23473;BME280;11909;52.516;13.564;2023-04-27T11:12:46;101455.31;;;10.02;41.10
23473;BME280;11909;52.516;13.564;2023-04-27T11:15:13;101436.09;;;10.29;46.03
23473;BME280;11909;52.516;13.564;2023-04-27T11:17:43;101432.28;;;10.68;46.25
23473;BME280;11909;52.516;13.564;2023-04-27T11:20:11;101442.16;;;11.17;44.28
23473;BME280;11909;52.516;13.564;2023-04-27T11:22:42;101441.94;;;11.24;43.49
23473;BME280;11909;52.516;13.564;2023-04-27T11:25:11;101464.69;;;11.14;38.89
23473;BME280;11909;52.516;13.564;2023-04-27T11:27:40;101479.53;;;10.70;36.08
23473;BME280;11909;52.516;13.564;2023-04-27T11:30:18;101478.91;;;10.30;37.14
23473;BME280;11909;52.516;13.564;2023-04-27T11:32:48;101480.00;;;10.02;38.37
23473;BME280;11909;52.516;13.564;2023-04-27T11:35:17;101475.56;;;9.96;39.60
23473;BME280;11909;52.516;13.564;2023-04-27T11:37:55;101475.47;;;9.90;41.32
23473;BME280;11909;52.516;13.564;2023-04-27T11:40:24;101478.53;;;9.94;39.69
23473;BME280;11909;52.516;13.564;2023-04-27T11:42:57;101470.50;;;9.87;41.13
23473;BME280;11909;52.516;13.564;2023-04-27T11:45:26;101472.13;;;9.83;43.01
23473;BME280;11909;52.516;13.564;2023-04-27T11:47:56;101461.91;;;9.79;43.37
23473;BME280;11909;52.516;13.564;2023-04-27T11:50:25;101463.84;;;9.78;44.98
23473;BME280;11909;52.516;13.564;2023-04-27T11:52:54;101475.63;;;9.79;43.05
23473;BME280;11909;52.516;13.564;2023-04-27T11:55:22;101473.19;;;9.82;44.50
23473;BME280;11909;52.516;13.564;2023-04-27T11:57:55;101473.47;;;9.81;42.80
23473;BME280;11909;52.516;13.564;2023-04-27T12:00:24;101476.47;;;9.79;43.19
23473;BME280;11909;52.516;13.564;2023-04-27T12:02:51;101486.72;;;9.89;41.80
23473;BME280;11909;52.516;13.564;2023-04-27T12:05:21;101480.38;;;9.88;44.11
23473;BME280;11909;52.516;13.564;2023-04-27T12:07:51;101473.66;;;10.01;44.95
23473;BME280;11909;52.516;13.564;2023-04-27T12:10:18;101478.59;;;9.99;43.67
23473;BME280;11909;52.516;13.564;2023-04-27T12:12:47;101483.31;;;10.04;44.17
23473;BME280;11909;52.516;13.564;2023-04-27T12:15:15;101490.13;;;10.01;42.30
23473;BME280;11909;52.516;13.564;2023-04-27T12:17:43;101486.81;;;9.99;43.55
23473;BME280;11909;52.516;13.564;2023-04-27T12:20:11;101487.19;;;10.08;42.82
23473;BME280;11909;52.516;13.564;2023-04-27T12:22:41;101482.66;;;10.24;43.48
23473;BME280;11909;52.516;13.564;2023-04-27T12:25:09;101481.50;;;10.42;44.02
23473;BME280;11909;52.516;13.564;2023-04-27T12:27:37;101487.66;;;10.60;42.18
23473;BME280;11909;52.516;13.564;2023-04-27T12:30:06;101506.84;;;10.55;39.30
23473;BME280;11909;52.516;13.564;2023-04-27T12:32:34;101489.47;;;10.44;40.92
23473;BME280;11909;52.516;13.564;2023-04-27T12:35:02;101489.63;;;10.37;42.46
23473;BME280;11909;52.516;13.564;2023-04-27T12:37:32;101490.44;;;10.32;40.74
23473;BME280;11909;52.516;13.564;2023-04-27T12:40:01;101480.44;;;10.21;41.76
23473;BME280;11909;52.516;13.564;2023-04-27T12:42:31;101480.94;;;10.13;43.07
23473;BME280;11909;52.516;13.564;2023-04-27T12:44:59;101488.94;;;10.19;42.26
23473;BME280;11909;52.516;13.564;2023-04-27T12:47:27;101485.38;;;10.19;42.39
23473;BME280;11909;52.516;13.564;2023-04-27T12:50:15;101493.34;;;10.21;42.13
23473;BME280;11909;52.516;13.564;2023-04-27T12:52:43;101495.44;;;10.13;42.77
23473;BME280;11909;52.516;13.564;2023-04-27T12:55:12;101485.28;;;10.09;44.58
23473;BME280;11909;52.516;13.564;2023-04-27T12:57:57;101478.06;;;10.30;45.08
23473;BME280;11909;52.516;13.564;2023-04-27T13:00:25;101483.91;;;10.39;43.12
23473;BME280;11909;52.516;13.564;2023-04-27T13:02:54;101492.97;;;10.39;41.25